Time;durP1;ratioP1;P1;durP2;ratioP2;P2;SDS_P1;SDS_P2;PMS_P1;PMS_P2;Temp;Humidity;BMP_temperature;BMP_pressure;BME280_temperature;BME280_humidity;BME280_pressure;Samples;Min_cycle;Max_cycle;Signal;HPM_P1;HPM_P2
2022/07/01 00:02:44;;;;;;;19.37;10.18;;;;;;;20.85;69.74;99732.62;2101526;83;21687;-69
2022/07/01 00:05:45;;;;;;;11.55;9.08;;;;;;;20.84;69.89;99727.77;2094214;84;21061;-71
2022/07/01 00:08:47;;;;;;;19.92;10.95;;;;;;;20.85;69.70;99729.39;2090005;84;22346;-70
2022/07/01 00:11:50;;;;;;;18.48;11.30;;;;;;;20.79;69.84;99729.83;2100957;84;21054;-69
2022/07/01 00:14:51;;;;;;;19.98;13.00;;;;;;;20.75;70.02;99729.20;2093426;83;20939;-69
2022/07/01 00:17:52;;;;;;;13.95;12.20;;;;;;;20.66;70.17;99727.97;2098712;83;21510;-71
2022/07/01 00:20:54;;;;;;;15.83;12.10;;;;;;;20.50;70.54;99725.52;2096005;84;21081;-69
2022/07/01 00:23:57;;;;;;;17.87;11.65;;;;;;;20.35;70.99;99726.83;2094269;84;21632;-69
2022/07/01 00:26:59;;;;;;;14.55;10.88;;;;;;;20.36;71.24;99717.71;2095855;84;21016;-69
2022/07/01 00:30:02;;;;;;;21.15;10.93;;;;;;;20.36;71.15;99724.98;2093505;84;21496;-69
2022/07/01 00:33:06;;;;;;;14.87;12.20;;;;;;;20.36;71.23;99724.45;2095794;83;21054;-70
2022/07/01 00:36:08;;;;;;;16.80;12.40;;;;;;;20.38;71.25;99718.80;2094729;84;21145;-69
2022/07/01 00:39:11;;;;;;;14.83;11.80;;;;;;;20.38;71.25;99722.34;2097150;84;21079;-69
2022/07/01 00:42:15;;;;;;;22.30;12.70;;;;;;;20.36;71.25;99718.25;2096083;84;21110;-68
2022/07/01 00:45:16;;;;;;;14.47;12.95;;;;;;;20.34;71.46;99706.34;2094821;84;21041;-69
2022/07/01 00:48:20;;;;;;;19.23;13.60;;;;;;;20.28;71.58;99699.23;2068005;84;21018;-70
2022/07/01 00:51:21;;;;;;;14.73;12.50;;;;;;;20.25;71.65;99698.91;2094043;84;20972;-69
2022/07/01 00:54:23;;;;;;;16.50;14.15;;;;;;;20.22;71.71;99706.13;2099229;84;21696;-70
2022/07/01 00:57:29;;;;;;;17.65;14.75;;;;;;;20.19;71.89;99702.03;2100429;84;21490;-69
2022/07/01 01:00:31;;;;;;;17.92;13.03;;;;;;;20.12;71.94;99704.84;2098142;83;21034;-69
2022/07/01 01:03:33;;;;;;;20.72;12.88;;;;;;;20.11;72.07;99709.95;2098433;84;21513;-70
2022/07/01 01:06:34;;;;;;;12.63;11.33;;;;;;;20.02;72.01;99710.55;2101549;84;21018;-69
2022/07/01 01:09:39;;;;;;;17.27;12.07;;;;;;;19.98;72.22;99714.79;2092869;83;21509;-72
2022/07/01 01:12:43;;;;;;;15.10;12.13;;;;;;;19.91;72.32;99714.94;2094109;84;21563;-70
2022/07/01 01:15:44;;;;;;;15.13;11.80;;;;;;;19.85;72.45;99715.86;2093461;84;21738;-72
2022/07/01 01:18:46;;;;;;;22.20;11.48;;;;;;;19.87;72.69;99720.48;2101345;84;21046;-71
2022/07/01 01:21:48;;;;;;;16.90;11.22;;;;;;;19.86;72.69;99721.55;2101009;84;21156;-70
2022/07/01 01:24:49;;;;;;;23.02;11.22;;;;;;;19.86;72.47;99707.56;2095190;84;21032;-71
2022/07/01 01:27:51;;;;;;;20.95;10.68;;;;;;;19.85;72.53;99717.20;2098467;84;20995;-69
2022/07/01 01:30:52;;;;;;;19.10;11.05;;;;;;;19.85;72.68;99726.63;2099342;83;21041;-71
2022/07/01 01:33:53;;;;;;;15.55;9.30;;;;;;;19.82;72.63;99727.95;2095365;84;21070;-69
2022/07/01 01:36:55;;;;;;;18.20;9.55;;;;;;;19.81;72.67;99717.40;2100933;84;21540;-69
2022/07/01 01:39:57;;;;;;;13.70;9.88;;;;;;;19.79;72.78;99720.84;2093066;84;21042;-69
2022/07/01 01:42:59;;;;;;;19.32;10.63;;;;;;;19.75;72.89;99721.05;2099507;83;21069;-71
2022/07/01 01:46:01;;;;;;;17.80;11.65;;;;;;;19.69;72.98;99720.92;2096489;84;21439;-69
2022/07/01 01:49:04;;;;;;;19.00;11.12;;;;;;;19.64;73.11;99723.47;2100927;84;21643;-68
2022/07/01 01:52:06;;;;;;;19.60;12.23;;;;;;;19.64;73.06;99720.78;2097963;84;21002;-68
2022/07/01 01:55:09;;;;;;;18.37;12.45;;;;;;;19.57;73.02;99724.14;2093819;84;21517;-68
2022/07/01 01:58:10;;;;;;;16.50;10.82;;;;;;;19.46;73.47;99719.58;2099266;84;21476;-69
2022/07/01 02:01:12;;;;;;;13.20;9.95;;;;;;;19.41;73.53;99712.73;2102498;84;21531;-69
2022/07/01 02:04:14;;;;;;;13.13;10.13;;;;;;;19.37;73.28;99712.39;2097109;84;21009;-70
2022/07/01 02:07:16;;;;;;;17.73;12.73;;;;;;;19.34;73.47;99712.02;2104197;84;21445;-68
2022/07/01 02:10:17;;;;;;;18.02;12.00;;;;;;;19.34;73.90;99716.05;2094756;84;21082;-69
2022/07/01 02:13:19;;;;;;;22.20;12.63;;;;;;;19.32;74.06;99714.96;2101282;84;21094;-70
2022/07/01 02:16:20;;;;;;;18.45;12.50;;;;;;;19.29;73.94;99709.20;2104477;84;20998;-70
2022/07/01 02:19:22;;;;;;;19.32;10.75;;;;;;;19.22;74.11;99702.08;2097094;83;21086;-68
2022/07/01 02:22:25;;;;;;;21.37;12.43;;;;;;;19.20;74.14;99696.14;2099355;84;21043;-69
2022/07/01 02:25:27;;;;;;;17.17;12.55;;;;;;;19.16;74.18;99700.33;2093787;84;20992;-68
2022/07/01 02:28:28;;;;;;;18.00;10.70;;;;;;;19.00;74.33;99706.39;2100315;84;21053;-69
2022/07/01 02:31:32;;;;;;;18.30;12.65;;;;;;;18.95;74.41;99703.56;2096721;83;21023;-68
2022/07/01 02:34:33;;;;;;;15.88;11.15;;;;;;;18.88;74.78;99696.16;2093574;83;21062;-68
2022/07/01 02:37:35;;;;;;;17.55;11.85;;;;;;;18.87;74.87;99710.65;2103200;84;20993;-69
2022/07/01 02:40:39;;;;;;;22.87;12.78;;;;;;;18.81;75.15;99708.36;2099126;84;21351;-69
2022/07/01 02:43:39;;;;;;;18.10;11.48;;;;;;;18.77;75.39;99706.64;2100908;84;21484;-69
2022/07/01 02:46:42;;;;;;;12.50;11.20;;;;;;;18.75;75.45;99710.10;2095617;83;21097;-68
2022/07/01 02:49:46;;;;;;;13.78;11.15;;;;;;;18.71;75.49;99706.72;2096832;84;21053;-70
2022/07/01 02:52:47;;;;;;;13.90;10.70;;;;;;;18.72;75.61;99711.84;2100202;84;21045;-70
2022/07/01 02:55:49;;;;;;;12.95;10.72;;;;;;;18.71;75.50;99706.72;2104160;83;21084;-68
2022/07/01 02:58:52;;;;;;;16.50;12.20;;;;;;;18.65;75.71;99708.45;2101226;84;21057;-69
2022/07/01 03:01:56;;;;;;;17.87;12.20;;;;;;;18.67;75.96;99718.46;2098693;84;21496;-70
2022/07/01 03:04:57;;;;;;;15.60;11.68;;;;;;;18.64;75.97;99713.55;2095211;84;21385;-70
2022/07/01 03:07:58;;;;;;;16.10;11.55;;;;;;;18.57;76.31;99714.97;2104125;84;21022;-69
2022/07/01 03:11:00;;;;;;;15.32;11.73;;;;;;;18.58;76.51;99715.28;2096452;84;21099;-68
2022/07/01 03:14:01;;;;;;;21.62;11.85;;;;;;;18.60;76.57;99712.34;2099713;84;21033;-68
2022/07/01 03:17:03;;;;;;;26.05;14.00;;;;;;;18.61;76.52;99707.26;2104094;84;21053;-69
2022/07/01 03:20:08;;;;;;;15.43;11.35;;;;;;;18.68;76.60;99713.37;2102845;84;21559;-72
2022/07/01 03:23:10;;;;;;;13.58;10.23;;;;;;;18.72;76.53;99711.03;2098260;84;21005;-70
2022/07/01 03:26:11;;;;;;;13.78;10.55;;;;;;;18.79;76.55;99711.80;2103340;84;21468;-69
2022/07/01 03:29:12;;;;;;;20.25;11.10;;;;;;;18.85;76.35;99718.93;2095055;84;21358;-69
2022/07/01 03:32:14;;;;;;;13.03;9.38;;;;;;;18.96;76.53;99718.66;2093027;84;21124;-69
2022/07/01 03:38:36;;;;;;;18.82;10.23;;;;;;;19.40;76.51;99719.15;2102791;84;21093;-68
2022/07/01 03:41:37;;;;;;;24.10;10.30;;;;;;;19.65;76.21;99719.78;2099188;83;21003;-69
2022/07/01 03:44:39;;;;;;;22.27;10.30;;;;;;;19.95;76.12;99717.42;2097667;84;20990;-69
2022/07/01 03:47:48;;;;;;;18.42;10.68;;;;;;;20.27;75.87;99723.70;2095405;84;20986;-68
2022/07/01 03:50:49;;;;;;;15.65;10.78;;;;;;;20.52;75.29;99723.38;2098679;84;20970;-68
2022/07/01 03:57:11;;;;;;;18.40;11.77;;;;;;;21.11;74.48;99714.97;2100263;83;21043;-70
2022/07/01 04:00:13;;;;;;;15.10;11.88;;;;;;;21.51;74.15;99704.53;2097145;84;21556;-69
2022/07/01 04:03:14;;;;;;;16.55;12.53;;;;;;;21.83;73.46;99702.81;2097880;83;21013;-71
2022/07/01 04:06:16;;;;;;;17.98;12.73;;;;;;;22.17;72.55;99706.73;2095838;84;21521;-73
2022/07/01 04:09:19;;;;;;;19.85;13.18;;;;;;;22.36;71.68;99713.46;2095059;83;21058;-71
2022/07/01 04:12:21;;;;;;;16.42;11.70;;;;;;;22.51;71.25;99713.33;2098048;84;21022;-69
2022/07/01 04:15:22;;;;;;;16.32;11.93;;;;;;;22.74;71.07;99713.55;2093530;84;21031;-70
2022/07/01 04:18:23;;;;;;;14.78;11.90;;;;;;;23.02;70.36;99709.76;2094276;84;21461;-69
2022/07/01 04:24:47;;;;;;;15.55;11.43;;;;;;;23.41;69.40;99713.56;2096237;84;21543;-71
2022/07/01 04:27:48;;;;;;;13.93;11.75;;;;;;;23.63;68.83;99715.59;2097022;84;21016;-70
2022/07/01 04:30:49;;;;;;;15.88;11.40;;;;;;;23.86;68.40;99713.56;2092173;84;21015;-70
2022/07/01 04:33:50;;;;;;;17.52;11.57;;;;;;;24.12;68.07;99717.98;2096419;84;20988;-71
2022/07/01 04:36:52;;;;;;;18.30;12.30;;;;;;;24.52;67.78;99725.17;2093781;84;21010;-70
2022/07/01 04:39:55;;;;;;;18.87;11.30;;;;;;;24.77;66.71;99722.50;2097484;84;21018;-70
2022/07/01 04:42:56;;;;;;;21.80;12.65;;;;;;;24.91;66.56;99721.42;2093713;84;21086;-70
2022/07/01 04:45:58;;;;;;;19.10;13.13;;;;;;;24.95;65.02;99731.21;2102647;83;20964;-71
2022/07/01 04:49:00;;;;;;;15.40;11.73;;;;;;;24.78;64.69;99731.47;2099629;84;21569;-70
2022/07/01 04:52:01;;;;;;;20.45;12.58;;;;;;;24.77;64.92;99733.34;2090175;84;21024;-70
2022/07/01 04:55:02;;;;;;;23.05;12.45;;;;;;;24.91;64.60;99733.63;2096461;84;21134;-69
2022/07/01 04:58:06;;;;;;;14.65;11.08;;;;;;;25.10;64.66;99731.75;2095765;84;21053;-70
2022/07/01 05:01:07;;;;;;;17.45;12.30;;;;;;;25.24;63.93;99736.92;2092017;84;21045;-71
2022/07/01 05:04:10;;;;;;;15.80;12.45;;;;;;;25.34;63.99;99729.30;2092348;84;21007;-71
2022/07/01 05:07:27;;;;;;;15.68;11.95;;;;;;;25.66;64.06;99727.62;2097696;83;21013;-69
2022/07/01 05:10:15;;;;;;;19.95;12.58;;;;;;;25.94;62.81;99732.44;2097144;84;21037;-75
2022/07/01 05:13:16;;;;;;;13.83;11.40;;;;;;;26.12;62.76;99731.55;2100082;84;21077;-72
2022/07/01 05:16:19;;;;;;;19.48;13.05;;;;;;;26.48;61.95;99726.73;2092217;84;21165;-71
2022/07/01 05:22:40;;;;;;;20.48;12.88;;;;;;;26.92;61.00;99721.00;2100858;84;21114;-69
2022/07/01 05:25:42;;;;;;;21.20;12.58;;;;;;;26.99;61.29;99717.41;2095700;84;20952;-70
2022/07/01 05:28:45;;;;;;;22.98;13.62;;;;;;;27.17;60.50;99716.75;2100569;84;21039;-68
2022/07/01 05:31:46;;;;;;;23.20;12.63;;;;;;;27.24;59.99;99710.41;2090822;84;21055;-69
2022/07/01 05:34:48;;;;;;;20.52;13.20;;;;;;;27.24;59.82;99709.05;2097706;84;20991;-68
2022/07/01 05:37:49;;;;;;;17.02;13.05;;;;;;;27.50;60.03;99710.14;2095258;84;21578;-71
2022/07/01 05:40:53;;;;;;;16.67;13.55;;;;;;;27.61;58.80;99714.94;2096258;84;20976;-69
2022/07/01 05:43:57;;;;;;;17.25;12.33;;;;;;;27.72;59.36;99714.53;2070842;84;21069;-69
2022/07/01 05:47:00;;;;;;;17.75;13.18;;;;;;;28.09;58.71;99717.66;2095891;84;21523;-69
2022/07/01 05:50:04;;;;;;;21.02;13.53;;;;;;;28.39;58.95;99713.72;2099169;83;21518;-68
2022/07/01 05:53:07;;;;;;;19.45;14.40;;;;;;;28.79;58.23;99712.30;2103273;83;21094;-69
2022/07/01 05:56:09;;;;;;;22.22;14.23;;;;;;;29.14;57.46;99714.77;2093701;83;21016;-69
2022/07/01 05:59:11;;;;;;;17.95;13.60;;;;;;;29.48;57.08;99714.41;2097057;84;21059;-69
2022/07/01 06:02:13;;;;;;;19.35;16.12;;;;;;;29.54;56.42;99711.86;2095072;84;20985;-70
2022/07/01 06:05:14;;;;;;;27.35;15.30;;;;;;;29.82;55.82;99720.91;2092284;84;21431;-68
2022/07/01 06:08:16;;;;;;;18.10;15.45;;;;;;;29.75;54.22;99734.16;2094502;84;21081;-68
2022/07/01 06:11:18;;;;;;;18.98;15.15;;;;;;;29.67;54.88;99733.49;2099851;83;21018;-70
2022/07/01 06:14:19;;;;;;;17.12;15.43;;;;;;;29.60;53.70;99720.77;2098561;84;21059;-71
2022/07/01 06:17:21;;;;;;;22.32;15.98;;;;;;;29.60;53.70;99720.77;2102266;84;21052;-74
2022/07/01 06:20:23;;;;;;;21.27;15.15;;;;;;;29.48;53.97;99722.61;2097072;84;21064;-70
2022/07/01 06:23:24;;;;;;;18.90;15.03;;;;;;;29.83;53.58;99721.14;2107200;83;21046;-69
2022/07/01 06:26:26;;;;;;;21.80;15.43;;;;;;;30.13;54.33;99712.06;2101008;84;20954;-69
2022/07/01 06:29:29;;;;;;;18.80;14.58;;;;;;;30.28;53.10;99713.67;2094661;84;20968;-70
2022/07/01 06:32:30;;;;;;;17.02;14.87;;;;;;;30.23;52.92;99713.22;2096266;84;21038;-69
2022/07/01 06:35:32;;;;;;;17.98;15.05;;;;;;;30.17;52.28;99708.95;2094113;84;21000;-69
2022/07/01 06:38:34;;;;;;;21.80;15.38;;;;;;;30.17;52.58;99711.69;2090740;84;21030;-69
2022/07/01 06:41:35;;;;;;;16.45;14.18;;;;;;;30.38;52.53;99706.59;2094892;84;21015;-70
2022/07/01 06:44:37;;;;;;;20.12;14.05;;;;;;;30.56;51.82;99702.08;2097381;84;21080;-71
2022/07/01 06:47:38;;;;;;;17.60;14.28;;;;;;;30.78;52.62;99711.67;2099014;84;21446;-69
2022/07/01 06:50:40;;;;;;;16.25;14.53;;;;;;;31.01;52.15;99709.77;2100614;84;21026;-69
2022/07/01 06:53:44;;;;;;;17.48;14.58;;;;;;;31.10;51.60;99710.38;2095980;84;21007;-69
2022/07/01 06:56:45;;;;;;;20.77;14.95;;;;;;;31.11;51.69;99703.20;2090364;83;21003;-68
2022/07/01 06:59:48;;;;;;;19.27;14.87;;;;;;;31.35;51.44;99707.53;2097073;84;21120;-70
2022/07/01 07:02:49;;;;;;;21.75;15.03;;;;;;;31.56;50.52;99711.91;2095111;84;21051;-69
2022/07/01 07:05:52;;;;;;;17.10;14.38;;;;;;;31.51;50.53;99712.88;2091163;84;21569;-68
2022/07/01 07:08:54;;;;;;;17.48;14.58;;;;;;;31.54;50.73;99712.25;2096347;84;20972;-69
2022/07/01 07:11:55;;;;;;;19.05;13.65;;;;;;;31.79;50.51;99707.15;2098672;84;21116;-69
2022/07/01 07:14:59;;;;;;;18.57;14.10;;;;;;;31.86;50.12;99707.50;2097009;84;21543;-69
2022/07/01 07:18:00;;;;;;;20.25;15.15;;;;;;;32.00;49.35;99710.95;2094541;84;21032;-68
2022/07/01 07:21:03;;;;;;;20.65;14.15;;;;;;;32.06;49.27;99717.90;2099534;84;21041;-69
2022/07/01 07:24:06;;;;;;;15.98;14.28;;;;;;;32.35;49.67;99707.70;2096574;84;20973;-69
2022/07/01 07:27:07;;;;;;;20.43;15.08;;;;;;;32.86;48.36;99705.29;2072469;84;21090;-69
2022/07/01 07:30:10;;;;;;;17.12;14.10;;;;;;;32.83;47.50;99696.30;2095318;84;20995;-68
2022/07/01 07:33:14;;;;;;;23.02;14.23;;;;;;;32.73;47.43;99693.91;2097914;84;21101;-69
2022/07/01 07:36:15;;;;;;;19.12;14.35;;;;;;;32.75;47.55;99690.28;2100510;84;21015;-69
2022/07/01 07:39:16;;;;;;;17.10;14.18;;;;;;;32.49;47.29;99686.95;2096450;84;21086;-69
2022/07/01 07:42:18;;;;;;;17.30;13.70;;;;;;;32.40;47.90;99691.62;2103381;83;21015;-69
2022/07/01 07:45:19;;;;;;;15.85;14.20;;;;;;;32.06;47.23;99695.15;2101986;83;20994;-69
2022/07/01 07:48:21;;;;;;;15.88;13.72;;;;;;;31.92;47.42;99696.66;2099295;83;21045;-69
2022/07/01 07:51:24;;;;;;;19.73;14.75;;;;;;;31.87;48.54;99690.71;2095030;84;20982;-68
2022/07/01 07:54:25;;;;;;;16.87;14.03;;;;;;;32.19;48.03;99697.52;2091737;84;21054;-68
2022/07/01 07:57:27;;;;;;;21.37;14.55;;;;;;;32.30;47.82;99696.87;2094213;83;20976;-69
2022/07/01 08:00:28;;;;;;;15.95;14.38;;;;;;;32.44;47.80;99700.84;2095190;84;21110;-69
2022/07/01 08:03:30;;;;;;;16.77;14.95;;;;;;;32.81;47.95;99699.39;2096972;84;20964;-69
2022/07/01 08:06:31;;;;;;;16.90;14.73;;;;;;;32.86;47.06;99704.45;2095284;84;21085;-68
2022/07/01 08:09:34;;;;;;;18.87;13.93;;;;;;;32.87;46.72;99710.21;2097678;84;21036;-69
2022/07/01 08:12:36;;;;;;;16.48;14.35;;;;;;;32.82;47.45;99709.80;2095309;83;21990;-68
2022/07/01 08:15:37;;;;;;;22.75;14.07;;;;;;;32.94;46.32;99705.81;2098486;83;21036;-71
2022/07/01 08:18:39;;;;;;;20.27;14.15;;;;;;;32.90;47.28;99713.11;2091796;84;21615;-73
2022/07/01 08:21:44;;;;;;;17.62;13.62;;;;;;;32.99;47.23;99715.30;2070747;84;21418;-69
2022/07/01 08:24:46;;;;;;;19.15;13.60;;;;;;;33.09;44.81;99706.48;2098225;84;21068;-69
2022/07/01 08:27:50;;;;;;;19.73;13.38;;;;;;;32.80;46.07;99711.52;2094142;83;21043;-69
2022/07/01 08:30:51;;;;;;;18.60;13.22;;;;;;;33.06;47.05;99712.61;2099724;84;21003;-70
2022/07/01 08:33:56;;;;;;;19.42;13.55;;;;;;;33.48;46.35;99714.44;2097895;84;21118;-71
2022/07/01 08:36:57;;;;;;;16.62;12.37;;;;;;;33.93;45.98;99712.54;2096183;84;21042;-72
2022/07/01 08:40:01;;;;;;;17.52;12.73;;;;;;;34.09;45.34;99707.27;2094661;84;21459;-69
2022/07/01 08:43:07;;;;;;;16.48;12.15;;;;;;;34.47;45.02;99696.72;2094021;84;21593;-70
2022/07/01 08:46:10;;;;;;;13.08;11.73;;;;;;;34.80;45.00;99693.19;2104014;84;21516;-70
2022/07/01 08:49:13;;;;;;;20.12;12.40;;;;;;;35.14;44.82;99688.48;2075919;84;20987;-69
2022/07/01 08:52:15;;;;;;;19.65;10.90;;;;;;;35.32;44.12;99694.62;2100775;84;21540;-69
2022/07/01 08:55:16;;;;;;;13.78;10.38;;;;;;;35.59;43.62;99695.36;2098365;84;21032;-70
2022/07/01 08:58:18;;;;;;;15.30;11.12;;;;;;;35.86;43.45;99686.93;2100481;83;21044;-70
2022/07/01 09:01:24;;;;;;;14.00;10.88;;;;;;;36.13;43.39;99693.71;2097592;84;21026;-69
2022/07/01 09:04:26;;;;;;;13.58;9.78;;;;;;;36.14;41.87;99698.06;2095759;84;21524;-70
2022/07/01 09:07:36;;;;;;;15.08;10.65;;;;;;;36.07;42.31;99701.18;2096106;83;21069;-70
2022/07/01 09:10:39;;;;;;;13.43;10.85;;;;;;;36.13;41.52;99697.05;2104107;84;21592;-69
2022/07/01 09:13:42;;;;;;;11.88;9.28;;;;;;;36.08;40.85;99693.14;2098880;84;21537;-69
2022/07/01 09:16:55;;;;;;;14.23;9.58;;;;;;;35.96;40.80;99687.59;2099028;84;21022;-69
2022/07/01 09:19:58;;;;;;;11.75;9.55;;;;;;;35.99;40.39;99682.79;2096605;84;21004;-69
2022/07/01 09:23:04;;;;;;;11.05;9.65;;;;;;;35.67;38.93;99686.71;2079499;84;21028;-68
2022/07/01 09:26:06;;;;;;;14.13;9.98;;;;;;;35.38;39.84;99681.63;2099926;84;21047;-70
2022/07/01 09:29:10;;;;;;;15.70;9.45;;;;;;;35.56;40.86;99686.95;2104038;84;21054;-68
2022/07/01 09:32:16;;;;;;;10.78;8.90;;;;;;;35.76;40.65;99680.52;2072218;84;21080;-70
2022/07/01 09:35:23;;;;;;;10.63;8.58;;;;;;;35.73;40.46;99681.77;2103289;84;21110;-70
2022/07/01 09:38:26;;;;;;;14.07;8.65;;;;;;;35.78;40.96;99678.78;2095844;84;21069;-68
2022/07/01 09:41:31;;;;;;;14.35;8.05;;;;;;;36.09;40.41;99678.18;2100116;84;21545;-68
2022/07/01 09:44:33;;;;;;;9.70;7.67;;;;;;;36.30;39.84;99678.02;2106585;84;21052;-69
2022/07/01 09:47:38;;;;;;;12.85;8.20;;;;;;;36.63;39.87;99678.37;2099082;84;21047;-69
2022/07/01 09:50:40;;;;;;;13.48;8.08;;;;;;;36.96;38.93;99680.27;2100255;83;21078;-70
2022/07/01 09:53:43;;;;;;;12.68;7.92;;;;;;;37.06;38.76;99672.06;2103327;84;21033;-69
2022/07/01 09:56:45;;;;;;;9.85;7.60;;;;;;;36.90;38.65;99670.63;2097370;84;21033;-69
2022/07/01 09:59:50;;;;;;;12.60;7.47;;;;;;;37.02;38.93;99664.25;2091972;84;21122;-71
2022/07/01 10:02:52;;;;;;;11.70;7.87;;;;;;;37.27;38.27;99659.94;2100512;84;21045;-69
2022/07/01 10:06:08;;;;;;;16.25;8.70;;;;;;;37.64;37.93;99652.15;2095677;84;21047;-69
2022/07/01 10:09:37;;;;;;;11.68;7.55;;;;;;;37.95;37.35;99651.30;2092519;83;22090;-69
2022/07/01 10:12:50;;;;;;;12.20;8.15;;;;;;;37.91;37.43;99656.73;2096485;83;21061;-69
2022/07/01 10:15:54;;;;;;;11.63;7.08;;;;;;;37.95;37.07;99653.27;2100854;84;21470;-68
2022/07/01 10:18:57;;;;;;;11.93;7.70;;;;;;;37.98;36.66;99655.30;2096981;84;21690;-69
2022/07/01 10:22:27;;;;;;;10.30;7.40;;;;;;;38.13;36.50;99648.34;2099750;84;21586;-69
2022/07/01 10:25:47;;;;;;;13.30;7.70;;;;;;;38.21;36.79;99642.93;2095331;84;21046;-68
2022/07/01 10:28:49;;;;;;;13.78;7.53;;;;;;;38.19;36.92;99642.52;2096856;84;21075;-69
2022/07/01 10:31:51;;;;;;;13.25;8.50;;;;;;;38.25;36.88;99635.51;2092462;84;21011;-69
2022/07/01 10:35:05;;;;;;;12.00;8.60;;;;;;;38.34;37.12;99631.92;2102299;84;22275;-71
2022/07/01 10:38:11;;;;;;;10.78;8.20;;;;;;;38.28;36.88;99624.49;2102711;83;21086;-69
2022/07/01 10:41:25;;;;;;;9.43;7.85;;;;;;;38.09;36.63;99618.36;2091581;84;21637;-70
2022/07/01 10:44:28;;;;;;;11.78;7.92;;;;;;;37.90;36.49;99605.86;2088829;84;20990;-69
2022/07/01 10:47:30;;;;;;;8.63;7.33;;;;;;;37.73;36.49;99604.31;2087083;84;21536;-70
2022/07/01 10:50:37;;;;;;;9.20;7.28;;;;;;;37.80;37.62;99598.95;2082954;84;21458;-69
2022/07/01 10:53:47;;;;;;;9.83;7.80;;;;;;;37.44;36.59;99606.41;2078117;84;21081;-69
2022/07/01 10:56:49;;;;;;;9.40;7.87;;;;;;;37.44;37.62;99600.88;2056271;84;20959;-69
2022/07/01 11:00:06;;;;;;;12.13;7.80;;;;;;;37.56;37.48;99597.80;2081768;84;21582;-69
2022/07/01 11:03:19;;;;;;;12.75;8.08;;;;;;;37.18;36.99;99602.04;2087355;84;21055;-70
2022/07/01 11:06:20;;;;;;;10.58;7.87;;;;;;;37.34;37.35;99601.45;2083928;84;22254;-68
2022/07/01 11:09:25;;;;;;;11.20;7.60;;;;;;;37.13;37.89;99614.16;2078643;85;21050;-69
2022/07/01 11:12:28;;;;;;;14.10;7.60;;;;;;;36.82;38.41;99617.70;2104056;83;21060;-69
2022/07/01 11:15:30;;;;;;;10.30;7.75;;;;;;;36.95;38.73;99628.11;2081474;84;21039;-68
2022/07/01 11:18:32;;;;;;;13.65;7.47;;;;;;;36.86;38.21;99624.69;2058218;84;21102;-69
2022/07/01 11:21:33;;;;;;;11.05;7.20;;;;;;;36.50;38.71;99629.26;2087113;84;21019;-70
2022/07/01 11:24:35;;;;;;;10.78;7.53;;;;;;;36.13;39.33;99630.20;2043771;84;21500;-68
2022/07/01 11:27:39;;;;;;;8.73;7.30;;;;;;;35.84;39.24;99620.23;2087416;84;20994;-69
2022/07/01 11:30:41;;;;;;;15.25;7.53;;;;;;;35.36;39.46;99615.55;2075932;85;21101;-70
2022/07/01 11:33:50;;;;;;;8.40;7.15;;;;;;;34.84;40.42;99616.18;2076476;84;21101;-69
2022/07/01 11:40:14;;;;;;;9.53;7.50;;;;;;;34.32;42.04;99611.38;2085602;84;21083;-69
2022/07/01 11:43:21;;;;;;;9.90;7.45;;;;;;;34.05;41.89;99609.21;2109263;84;22452;-69
2022/07/01 11:46:23;;;;;;;8.93;7.55;;;;;;;33.80;42.28;99621.41;2110071;84;21094;-69
2022/07/01 11:49:25;;;;;;;13.75;8.10;;;;;;;33.76;43.07;99619.66;2104935;84;21074;-71
2022/07/01 11:52:27;;;;;;;8.78;7.95;;;;;;;33.79;43.76;99616.23;2102039;84;22185;-69
2022/07/01 11:55:29;;;;;;;12.15;7.92;;;;;;;33.96;44.70;99602.92;2105692;83;20991;-70
2022/07/01 11:58:47;;;;;;;9.23;7.20;;;;;;;34.48;44.10;99594.24;2109430;84;21028;-69
2022/07/01 12:01:55;;;;;;;;;;;;;;;34.90;43.57;99593.56;2114771;84;21957;-69
2022/07/01 12:04:57;;;;;;;8.68;7.12;;;;;;;35.30;42.16;99597.05;2107348;84;20111;-69
2022/07/01 12:07:58;;;;;;;9.78;7.95;;;;;;;35.58;41.18;99588.91;2085950;84;21031;-68
2022/07/01 12:11:00;;;;;;;10.58;7.60;;;;;;;35.32;40.97;99591.20;2111619;83;20977;-69
2022/07/01 12:14:02;;;;;;;12.37;8.95;;;;;;;35.00;41.64;99607.45;2109601;84;21519;-69
2022/07/01 12:17:08;;;;;;;10.55;8.10;;;;;;;34.74;42.50;99605.80;2108845;83;21005;-70
2022/07/01 12:20:10;;;;;;;14.68;8.38;;;;;;;34.51;42.99;99605.37;2112035;84;21030;-69
2022/07/01 12:23:15;;;;;;;11.50;7.58;;;;;;;34.30;43.79;99612.89;2110081;84;21010;-74
2022/07/01 12:26:17;;;;;;;11.97;8.13;;;;;;;34.04;44.37;99612.55;2109453;83;21058;-69
2022/07/01 12:29:23;;;;;;;13.75;8.85;;;;;;;33.74;43.06;99617.83;2108012;83;21433;-68
2022/07/01 12:32:28;;;;;;;27.55;10.30;;;;;;;33.56;44.21;99630.86;2110226;84;21521;-70
2022/07/01 12:35:36;;;;;;;23.47;8.85;;;;;;;33.06;46.27;99670.02;2092595;84;21033;-67
2022/07/01 12:38:37;;;;;;;15.38;10.38;;;;;;;31.64;48.37;99662.59;2106544;84;21060;-69
2022/07/01 12:41:39;;;;;;;20.97;10.38;;;;;;;30.14;49.19;99640.61;2104712;84;21040;-69
2022/07/01 12:44:46;;;;;;;18.15;10.40;;;;;;;29.50;51.51;99672.56;2103680;84;21001;-69
2022/07/01 12:47:50;;;;;;;23.90;10.63;;;;;;;28.91;54.06;99691.36;2074772;84;21056;-70
2022/07/01 12:50:57;;;;;;;8.83;5.87;;;;;;;27.72;54.17;99734.16;2080919;84;21046;-70
2022/07/01 12:54:00;;;;;;;18.98;8.30;;;;;;;26.89;52.72;99750.98;2100831;84;21113;-68
2022/07/01 12:57:01;;;;;;;9.73;7.67;;;;;;;26.64;53.89;99762.02;2102265;83;21065;-68
2022/07/01 13:00:04;;;;;;;14.10;6.75;;;;;;;26.00;54.96;99721.55;2078595;84;21480;-69
2022/07/01 13:03:09;;;;;;;10.85;6.30;;;;;;;25.37;56.42;99721.44;2099449;84;21628;-72
2022/07/01 13:06:10;;;;;;;15.10;6.72;;;;;;;25.05;56.52;99709.48;2105160;83;20975;-70
2022/07/01 13:09:12;;;;;;;13.78;7.60;;;;;;;24.88;56.91;99692.12;2108640;84;21074;-68
2022/07/01 13:12:13;;;;;;;7.58;6.20;;;;;;;24.96;58.21;99692.12;2104130;83;21112;-68
2022/07/01 13:15:17;;;;;;;8.58;6.87;;;;;;;25.08;57.92;99689.13;2108347;84;20987;-68
2022/07/01 13:18:18;;;;;;;8.38;7.03;;;;;;;25.15;57.89;99682.92;2100221;83;21078;-68
2022/07/01 13:21:20;;;;;;;12.73;7.78;;;;;;;25.32;58.31;99663.06;2102503;84;21489;-69
2022/07/01 13:24:24;;;;;;;11.80;7.75;;;;;;;25.62;59.15;99645.88;2085346;83;21112;-68
2022/07/01 13:27:25;;;;;;;9.60;8.55;;;;;;;25.90;59.48;99645.78;2105588;84;20990;-69
2022/07/01 13:30:27;;;;;;;13.98;10.10;;;;;;;26.15;60.57;99650.78;2107615;84;21029;-68
2022/07/01 13:33:28;;;;;;;12.85;10.75;;;;;;;26.35;60.77;99671.04;2106347;84;21024;-68
2022/07/01 13:36:31;;;;;;;11.38;9.15;;;;;;;26.54;62.93;99687.55;2105839;84;20983;-68
2022/07/01 13:39:32;;;;;;;11.12;9.20;;;;;;;26.55;60.62;99699.23;2110162;83;21607;-68
2022/07/01 13:42:34;;;;;;;11.57;8.80;;;;;;;26.51;60.64;99698.19;2095397;83;21075;-68
2022/07/01 13:45:36;;;;;;;12.33;8.93;;;;;;;26.45;60.55;99706.90;2087598;84;21084;-73
2022/07/01 13:48:39;;;;;;;12.20;8.83;;;;;;;26.33;60.88;99733.63;2090533;84;21037;-68
2022/07/01 13:51:42;;;;;;;17.20;9.40;;;;;;;26.15;61.59;99730.44;2094662;84;21048;-68
2022/07/01 13:54:45;;;;;;;12.20;8.45;;;;;;;26.04;61.16;99728.05;2088133;84;20970;-69
2022/07/01 13:57:47;;;;;;;11.48;8.55;;;;;;;25.90;61.46;99745.49;2093593;84;21051;-70
2022/07/01 14:00:48;;;;;;;9.25;8.00;;;;;;;25.76;61.70;99746.59;2087058;84;21069;-68
2022/07/01 14:03:52;;;;;;;12.05;7.87;;;;;;;25.69;61.45;99740.09;2094330;84;21437;-68
2022/07/01 14:06:54;;;;;;;10.08;7.30;;;;;;;25.63;61.39;99763.48;2090958;84;21108;-68
2022/07/01 14:09:56;;;;;;;13.03;7.53;;;;;;;25.47;61.23;99815.10;2089982;84;21030;-69
2022/07/01 14:12:57;;;;;;;8.25;7.08;;;;;;;25.31;62.44;99846.05;2094980;84;21505;-69
2022/07/01 14:15:59;;;;;;;12.18;8.30;;;;;;;25.01;62.42;99805.56;2094448;84;20943;-68
2022/07/01 14:19:00;;;;;;;13.80;9.13;;;;;;;24.71;62.92;99838.88;2094011;84;21523;-68
2022/07/01 14:22:02;;;;;;;11.60;9.30;;;;;;;24.51;63.54;99866.73;2093804;84;20994;-68
2022/07/01 14:25:06;;;;;;;14.28;10.58;;;;;;;24.25;64.09;99846.80;2089126;84;21011;-68